Time;durP1;ratioP1;P1;durP2;ratioP2;P2;SDS_P1;SDS_P2;PMS_P1;PMS_P2;Temp;Humidity;BMP_temperature;BMP_pressure;BME280_temperature;BME280_humidity;BME280_pressure;Samples;Min_cycle;Max_cycle;Signal;HPM_P1;HPM_P2
2022/01/16 00:07:49;;;;;;;13.05;6.05;;;22.00;61.80;;;;;;7807623;28;20198;-56
2022/01/16 00:11:36;;;;;;;10.85;5.63;;;21.90;61.70;;;;;;7807730;28;20244;-57
2022/01/16 00:15:22;;;;;;;11.82;5.88;;;21.90;61.80;;;;;;7807273;28;20186;-58
2022/01/16 00:19:08;;;;;;;9.95;5.40;;;21.90;61.80;;;;;;7806748;28;20244;-57
2022/01/16 00:22:53;;;;;;;10.30;5.80;;;21.90;61.80;;;;;;7807598;28;20186;-55
2022/01/16 00:26:40;;;;;;;11.95;5.95;;;21.90;61.80;;;;;;7807379;28;20206;-54
2022/01/16 00:30:26;;;;;;;12.20;5.45;;;21.80;61.90;;;;;;7806954;28;20175;-56
2022/01/16 00:34:12;;;;;;;10.02;5.18;;;21.80;62.00;;;;;;7807324;28;20178;-55
2022/01/16 00:37:57;;;;;;;12.60;5.53;;;21.80;62.00;;;;;;7806415;28;20721;-56
2022/01/16 00:41:43;;;;;;;9.85;5.05;;;21.70;62.00;;;;;;7807170;28;20297;-58
2022/01/16 00:45:33;;;;;;;9.73;5.50;;;21.70;62.00;;;;;;7806886;28;20214;-59
2022/01/16 00:49:19;;;;;;;11.20;5.15;;;21.70;62.00;;;;;;7806281;28;20199;-57
2022/01/16 00:53:04;;;;;;;11.40;5.35;;;21.70;62.20;;;;;;7806943;28;20178;-56
2022/01/16 00:56:50;;;;;;;12.07;5.22;;;21.60;62.10;;;;;;7806811;28;20628;-56
2022/01/16 01:00:35;;;;;;;10.95;5.25;;;21.60;62.10;;;;;;7806225;28;20266;-53
2022/01/16 01:04:21;;;;;;;11.98;5.45;;;21.60;62.10;;;;;;7806765;28;20209;-59
2022/01/16 01:08:08;;;;;;;9.45;5.15;;;21.50;62.20;;;;;;7806058;28;20225;-56
2022/01/16 01:11:53;;;;;;;11.50;5.07;;;21.50;62.20;;;;;;7806637;28;20205;-56
2022/01/16 01:15:46;;;;;;;11.65;4.88;;;21.50;62.20;;;;;;7806678;28;20175;-57
2022/01/16 01:19:34;;;;;;;9.63;5.25;;;21.50;62.30;;;;;;7804363;28;20602;-57
2022/01/16 01:23:19;;;;;;;9.32;5.10;;;21.50;62.40;;;;;;7806965;28;20201;-57
2022/01/16 01:27:23;;;;;;;9.15;5.20;;;21.40;62.30;;;;;;7809233;28;20672;-59
2022/01/16 01:31:11;;;;;;;11.68;4.90;;;21.40;62.40;;;;;;7811983;28;20178;-58
2022/01/16 01:34:57;;;;;;;8.30;4.85;;;21.40;62.40;;;;;;7812464;28;20186;-58
2022/01/16 01:38:42;;;;;;;10.55;5.15;;;21.30;62.40;;;;;;7811525;28;20208;-59
2022/01/16 01:42:33;;;;;;;10.75;5.13;;;21.30;62.50;;;;;;7812097;28;20175;-58
2022/01/16 01:54:27;;;;;;;8.88;5.35;;;21.30;62.50;;;;;;7811720;28;20183;-59
2022/01/16 01:58:14;;;;;;;8.43;4.80;;;21.20;62.50;;;;;;7810939;28;20273;-59
2022/01/16 02:02:00;;;;;;;9.00;4.97;;;21.20;62.40;;;;;;7811536;28;20206;-59
2022/01/16 02:05:45;;;;;;;9.77;5.07;;;21.20;62.40;;;;;;7811469;28;20203;-56
2022/01/16 02:09:31;;;;;;;11.52;5.32;;;21.20;62.40;;;;;;7810608;28;20197;-59
2022/01/16 02:13:23;;;;;;;9.05;4.53;;;21.20;62.40;;;;;;7811258;28;20186;-58
2022/01/16 02:30:12;;;;;;;9.20;4.63;;;21.10;62.40;;;;;;7810438;28;20668;-52
2022/01/16 02:37:34;;;;;;;9.98;4.82;;;21.00;62.30;;;;;;7809763;28;20201;-56
2022/01/16 02:41:19;;;;;;;9.65;5.43;;;21.00;62.40;;;;;;7810691;28;20179;-59
2022/01/16 02:45:07;;;;;;;8.40;4.97;;;21.00;62.40;;;;;;7810400;28;20213;-56
2022/01/16 02:48:54;;;;;;;10.13;5.07;;;21.00;62.30;;;;;;7809860;28;20190;-59
2022/01/16 02:52:39;;;;;;;10.00;5.43;;;21.00;62.40;;;;;;7810271;28;20175;-58
2022/01/16 02:56:25;;;;;;;8.68;5.05;;;20.90;62.40;;;;;;7809894;28;20183;-58
2022/01/16 03:00:11;;;;;;;10.93;5.20;;;20.90;62.40;;;;;;7809220;28;20229;-55
2022/01/16 03:03:56;;;;;;;10.13;5.47;;;20.90;62.40;;;;;;7809676;28;20209;-56
2022/01/16 03:07:43;;;;;;;12.48;5.28;;;20.90;62.50;;;;;;7808862;28;20248;-57
2022/01/16 03:11:39;;;;;;;9.70;5.05;;;20.90;62.50;;;;;;7809624;28;20174;-58
2022/01/16 03:15:25;;;;;;;9.45;5.18;;;20.90;62.50;;;;;;7809560;28;20236;-54
2022/01/16 03:23:17;;;;;;;8.52;5.22;;;20.90;62.60;;;;;;7809140;28;20175;-57
2022/01/16 03:27:15;;;;;;;10.68;5.25;;;20.80;62.50;;;;;;7809133;28;20236;-59
2022/01/16 03:31:01;;;;;;;9.55;5.63;;;20.80;62.60;;;;;;7808748;28;20244;-57
2022/01/16 03:34:46;;;;;;;10.85;5.72;;;20.80;62.70;;;;;;7808849;28;20182;-57
2022/01/16 03:38:32;;;;;;;9.65;5.10;;;20.80;62.70;;;;;;7807946;28;20194;-57
2022/01/16 03:42:24;;;;;;;12.40;5.28;;;20.80;62.70;;;;;;7808594;28;20183;-57
2022/01/16 03:46:10;;;;;;;9.27;5.18;;;20.80;62.70;;;;;;7808328;28;20283;-56
2022/01/16 03:49:55;;;;;;;7.45;4.40;;;20.70;62.60;;;;;;7807028;28;20273;-59
2022/01/16 03:53:42;;;;;;;9.55;4.97;;;20.70;62.80;;;;;;7808340;28;20178;-59
2022/01/16 03:57:28;;;;;;;9.55;5.32;;;20.70;62.80;;;;;;7807605;28;20213;-56
2022/01/16 04:01:14;;;;;;;10.05;5.13;;;20.70;62.80;;;;;;7807958;28;20179;-60
2022/01/16 04:04:59;;;;;;;8.02;4.57;;;20.70;62.80;;;;;;7808135;28;20612;-60
2022/01/16 04:08:45;;;;;;;9.55;4.70;;;20.70;62.80;;;;;;7807516;28;20203;-56
2022/01/16 04:12:33;;;;;;;11.68;5.40;;;20.70;62.90;;;;;;7808183;28;20232;-55
2022/01/16 04:16:21;;;;;;;9.35;4.93;;;20.70;62.80;;;;;;7807804;28;20703;-57
2022/01/16 04:20:07;;;;;;;8.93;4.85;;;20.70;62.80;;;;;;7806828;28;20675;-58
2022/01/16 04:23:53;;;;;;;8.82;4.55;;;20.70;62.90;;;;;;7807504;28;20294;-56
2022/01/16 04:27:39;;;;;;;13.05;5.43;;;20.70;62.90;;;;;;7806676;28;20278;-58
2022/01/16 04:31:24;;;;;;;9.55;5.07;;;20.70;62.90;;;;;;7807435;28;20186;-58
2022/01/16 04:35:10;;;;;;;10.30;5.53;;;20.60;62.80;;;;;;7807256;28;20228;-57
2022/01/16 04:38:56;;;;;;;8.32;4.80;;;20.70;62.80;;;;;;7806441;28;20198;-56
2022/01/16 04:46:46;;;;;;;9.73;5.18;;;20.60;62.70;;;;;;7806998;28;20206;-58
2022/01/16 04:50:31;;;;;;;10.73;5.75;;;20.70;62.50;;;;;;7806466;28;20180;-56
2022/01/16 04:54:17;;;;;;;10.77;5.55;;;20.60;62.20;;;;;;7807012;28;20793;-59
2022/01/16 04:58:02;;;;;;;12.18;5.32;;;20.60;62.20;;;;;;7806145;28;20202;-56
2022/01/16 05:01:48;;;;;;;10.75;5.32;;;20.60;62.30;;;;;;7810678;28;20186;-59
2022/01/16 05:05:33;;;;;;;9.65;5.38;;;20.60;62.20;;;;;;7813532;28;20738;-58
2022/01/16 05:09:19;;;;;;;9.45;5.55;;;20.60;62.20;;;;;;7812330;28;20195;-57
2022/01/16 05:13:28;;;;;;;12.60;5.60;;;20.60;62.40;;;;;;7812809;28;20186;-55
2022/01/16 05:17:10;;;;;;;10.38;5.28;;;20.50;62.20;;;;;;7820758;28;20209;-58
2022/01/16 05:20:55;;;;;;;9.32;5.60;;;20.60;62.40;;;;;;7811822;28;20285;-57
2022/01/16 05:24:41;;;;;;;9.68;5.18;;;20.50;62.30;;;;;;7813182;28;20206;-59
2022/01/16 05:28:27;;;;;;;8.45;5.10;;;20.50;62.50;;;;;;7813123;28;20241;-59
2022/01/16 05:32:16;;;;;;;13.10;4.93;;;20.50;62.70;;;;;;7812311;28;20266;-58
2022/01/16 05:36:01;;;;;;;11.65;5.85;;;20.50;62.70;;;;;;7812581;28;20273;-56
2022/01/16 05:39:49;;;;;;;9.43;5.60;;;20.50;62.70;;;;;;7826648;28;20217;-58
2022/01/16 05:43:34;;;;;;;21.75;5.97;;;20.40;62.80;;;;;;7842814;28;20221;-59
2022/01/16 05:47:20;;;;;;;9.68;5.32;;;20.50;62.90;;;;;;7842736;28;20197;-57
2022/01/16 05:51:05;;;;;;;12.68;5.57;;;20.40;63.00;;;;;;7826242;28;20550;-58
2022/01/16 05:54:50;;;;;;;8.52;5.30;;;20.40;63.00;;;;;;7811485;28;20213;-59
2022/01/16 05:58:36;;;;;;;11.10;6.18;;;20.40;63.10;;;;;;7811077;28;20206;-59
2022/01/16 06:02:21;;;;;;;14.15;5.80;;;20.40;63.20;;;;;;7831441;28;20186;-59
2022/01/16 06:06:08;;;;;;;10.73;6.35;;;20.40;63.20;;;;;;7815023;28;20221;-59
2022/01/16 06:09:54;;;;;;;10.77;5.40;;;20.40;63.20;;;;;;7828001;28;20213;-57
2022/01/16 06:13:40;;;;;;;7.55;5.22;;;20.40;63.30;;;;;;7823100;28;20178;-56
2022/01/16 06:17:25;;;;;;;13.40;6.32;;;20.40;63.30;;;;;;7811433;28;20233;-57
2022/01/16 06:21:11;;;;;;;10.70;5.57;;;20.40;63.30;;;;;;7810937;28;20175;-55
2022/01/16 06:24:56;;;;;;;12.95;6.03;;;20.40;63.40;;;;;;7811309;28;20802;-57
2022/01/16 06:28:42;;;;;;;13.75;5.55;;;20.40;63.40;;;;;;7810155;28;20594;-59
2022/01/16 06:32:27;;;;;;;14.25;6.43;;;20.40;63.50;;;;;;7810738;28;20645;-58
2022/01/16 06:36:13;;;;;;;16.63;5.40;;;20.40;63.50;;;;;;7816387;28;20249;-56
2022/01/16 06:39:58;;;;;;;12.65;5.80;;;20.40;63.50;;;;;;7821991;28;20213;-55
2022/01/16 06:43:44;;;;;;;15.40;6.03;;;20.40;63.50;;;;;;7825631;28;20190;-56
2022/01/16 06:47:29;;;;;;;12.75;6.10;;;20.30;63.50;;;;;;7822075;28;20223;-56
2022/01/16 06:51:19;;;;;;;19.42;6.20;;;20.30;63.80;;;;;;7825985;28;20858;-55
2022/01/16 06:55:06;;;;;;;21.65;6.75;;;20.40;63.70;;;;;;7831236;28;20182;-58
2022/01/16 06:58:51;;;;;;;26.50;6.53;;;20.40;63.50;;;;;;7840224;28;20260;-56
2022/01/16 07:02:37;;;;;;;26.20;6.93;;;20.40;63.70;;;;;;7840853;28;20182;-58
2022/01/16 07:06:23;;;;;;;44.72;8.00;;;20.40;63.90;;;;;;7840573;28;20206;-53
2022/01/16 07:10:09;;;;;;;28.40;7.45;;;20.40;63.80;;;;;;7816894;28;20233;-58
2022/01/16 07:13:54;;;;;;;20.52;6.47;;;20.40;63.80;;;;;;7809693;28;20209;-57
2022/01/16 07:17:40;;;;;;;22.30;7.05;;;20.40;63.80;;;;;;7825328;28;20209;-58
2022/01/16 07:21:25;;;;;;;28.10;7.93;;;20.30;63.70;;;;;;7840200;28;20561;-56
2022/01/16 07:25:12;;;;;;;19.25;6.97;;;20.40;63.70;;;;;;7825637;28;20245;-57
2022/01/16 07:28:57;;;;;;;18.65;6.50;;;20.40;63.80;;;;;;7808252;28;20238;-54
2022/01/16 07:32:43;;;;;;;24.30;7.18;;;20.40;63.80;;;;;;7808871;28;20174;-58
2022/01/16 07:36:28;;;;;;;21.73;6.78;;;20.40;63.90;;;;;;7808308;28;20182;-57
2022/01/16 07:40:17;;;;;;;27.58;7.68;;;20.40;63.90;;;;;;7807535;28;20234;-58
2022/01/16 07:44:03;;;;;;;35.30;8.25;;;20.40;63.80;;;;;;7814891;28;20865;-57
2022/01/16 07:48:02;;;;;;;27.83;8.57;;;20.40;63.50;;;;;;7808300;28;20210;-55
2022/01/16 07:52:01;;;;;;;35.70;7.47;;;20.40;63.50;;;;;;7793651;28;20240;-58
2022/01/16 07:55:47;;;;;;;21.95;8.32;;;20.40;63.40;;;;;;7792411;28;20194;-59
2022/01/16 07:59:33;;;;;;;29.38;8.23;;;20.40;63.20;;;;;;7824299;28;20230;-55
2022/01/16 08:03:18;;;;;;;28.55;8.38;;;20.40;63.20;;;;;;7839193;28;20193;-58
2022/01/16 08:07:07;;;;;;;31.90;9.27;;;20.50;63.00;;;;;;7825221;28;20264;-58
2022/01/16 08:10:52;;;;;;;38.42;9.30;;;20.50;62.90;;;;;;7807366;28;20190;-59
2022/01/16 08:14:38;;;;;;;14.77;8.77;;;20.40;62.90;;;;;;7808036;28;20186;-57
2022/01/16 08:18:23;;;;;;;24.15;10.10;;;20.50;62.70;;;;;;7806860;28;20209;-56
2022/01/16 08:22:10;;;;;;;26.48;8.95;;;20.50;62.70;;;;;;7807637;28;20189;-58
2022/01/16 08:25:56;;;;;;;20.75;9.00;;;20.50;62.70;;;;;;7809065;28;20199;-56
2022/01/16 08:29:42;;;;;;;26.85;8.52;;;20.50;62.70;;;;;;7807377;28;20205;-56
2022/01/16 08:33:28;;;;;;;19.45;9.40;;;20.50;62.70;;;;;;7807642;28;20233;-57
2022/01/16 08:37:13;;;;;;;18.27;9.18;;;20.50;62.70;;;;;;7806972;28;20198;-58
2022/01/16 08:41:00;;;;;;;19.40;9.85;;;20.50;62.60;;;;;;7806594;28;20833;-55
2022/01/16 08:44:45;;;;;;;20.85;9.55;;;20.50;62.50;;;;;;7806909;28;20214;-56
2022/01/16 08:48:32;;;;;;;17.52;9.75;;;20.50;62.50;;;;;;7806036;28;20226;-56
2022/01/16 08:52:19;;;;;;;19.23;9.80;;;20.50;62.50;;;;;;7807010;28;20232;-55
2022/01/16 08:56:06;;;;;;;20.08;9.27;;;20.50;62.50;;;;;;7807054;28;20741;-56
2022/01/16 08:59:51;;;;;;;18.50;9.05;;;20.50;62.50;;;;;;7831645;28;20212;-53
2022/01/16 09:03:38;;;;;;;17.85;10.27;;;20.50;62.50;;;;;;7837601;28;20642;-57
2022/01/16 09:07:24;;;;;;;15.80;9.27;;;20.60;62.40;;;;;;7837619;28;20263;-56
2022/01/16 09:11:09;;;;;;;18.65;8.95;;;20.70;62.50;;;;;;7837040;28;20265;-59
2022/01/16 09:14:55;;;;;;;15.52;9.13;;;20.70;62.40;;;;;;7837591;28;20193;-55
2022/01/16 09:18:41;;;;;;;13.80;8.45;;;20.70;62.30;;;;;;7836662;28;20710;-56
2022/01/16 09:22:26;;;;;;;25.98;9.95;;;20.80;62.70;;;;;;7837308;28;20586;-55
2022/01/16 09:26:13;;;;;;;15.52;8.75;;;20.70;61.10;;;;;;7837255;28;20613;-55
2022/01/16 09:29:59;;;;;;;30.15;7.82;;;20.80;63.10;;;;;;7836386;28;20194;-55
2022/01/16 09:33:45;;;;;;;23.58;8.18;;;20.80;64.90;;;;;;7837601;28;20178;-56
2022/01/16 09:37:30;;;;;;;28.35;8.43;;;20.90;65.20;;;;;;7836871;28;20285;-55
2022/01/16 09:41:17;;;;;;;23.23;7.22;;;21.00;65.20;;;;;;7837025;28;20232;-57
2022/01/16 09:45:08;;;;;;;24.80;6.78;;;21.10;66.00;;;;;;7812715;28;20301;-58
2022/01/16 09:48:54;;;;;;;21.58;7.65;;;21.20;66.50;;;;;;7806576;28;20205;-56
2022/01/16 09:52:41;;;;;;;24.70;7.35;;;21.20;66.50;;;;;;7811749;28;20269;-56
2022/01/16 09:56:27;;;;;;;20.63;6.78;;;21.30;66.70;;;;;;7811511;28;20178;-57
2022/01/16 10:00:15;;;;;;;16.60;7.10;;;21.30;66.30;;;;;;7810938;28;20186;-58
2022/01/16 10:04:01;;;;;;;25.85;7.40;;;21.30;66.80;;;;;;7811453;28;20221;-57
2022/01/16 10:07:47;;;;;;;32.47;7.78;;;21.30;66.50;;;;;;7810816;28;20206;-56
2022/01/16 10:11:39;;;;;;;15.75;7.10;;;21.30;66.50;;;;;;7811406;28;20179;-56
2022/01/16 10:15:27;;;;;;;24.63;6.68;;;21.20;66.40;;;;;;7811243;28;20664;-57
2022/01/16 10:19:27;;;;;;;24.13;7.32;;;21.20;66.20;;;;;;7810392;28;20198;-59
2022/01/16 10:23:19;;;;;;;26.40;7.35;;;21.10;66.40;;;;;;7811392;28;20175;-55
2022/01/16 10:27:07;;;;;;;32.45;8.25;;;21.10;66.40;;;;;;7810634;28;20215;-56
2022/01/16 10:30:58;;;;;;;37.28;7.18;;;21.10;66.40;;;;;;7840010;28;20185;-57
2022/01/16 10:34:45;;;;;;;26.77;7.35;;;21.20;66.50;;;;;;7841658;28;20707;-56
2022/01/16 10:38:31;;;;;;;35.28;7.72;;;21.10;66.20;;;;;;7831142;28;20698;-56
2022/01/16 10:42:17;;;;;;;18.35;6.90;;;21.20;66.40;;;;;;7810442;28;20519;-55
2022/01/16 10:46:03;;;;;;;16.27;6.78;;;21.20;66.20;;;;;;7810214;28;20214;-56
2022/01/16 10:50:19;;;;;;;20.02;7.65;;;21.30;66.20;;;;;;7809466;28;20203;-56
2022/01/16 10:54:28;;;;;;;20.52;7.22;;;21.40;66.20;;;;;;7775363;28;20253;-55
2022/01/16 10:58:23;;;;;;;16.45;6.95;;;21.60;66.10;;;;;;7764449;28;20214;-56
2022/01/16 11:02:09;;;;;;;15.32;7.07;;;21.70;65.90;;;;;;7775239;28;20282;-56
2022/01/16 11:05:55;;;;;;;16.27;6.32;;;21.80;65.80;;;;;;7775888;28;20203;-58
2022/01/16 11:09:41;;;;;;;14.55;7.20;;;21.90;65.80;;;;;;7774383;28;20542;-59
2022/01/16 11:13:30;;;;;;;15.77;7.22;;;22.10;65.70;;;;;;7775150;28;20179;-59
2022/01/16 11:17:16;;;;;;;13.43;6.80;;;22.30;65.70;;;;;;7774880;28;20808;-59
2022/01/16 11:25:01;;;;;;;21.55;7.28;;;22.50;65.30;;;;;;7804376;28;20325;-58
2022/01/16 11:28:47;;;;;;;12.00;6.82;;;22.60;65.20;;;;;;7805620;28;20241;-59
2022/01/16 11:32:33;;;;;;;14.55;6.95;;;22.80;65.10;;;;;;7809608;28;20649;-60
2022/01/16 11:36:27;;;;;;;13.20;7.45;;;22.80;65.00;;;;;;7809483;28;20640;-58
2022/01/16 11:40:21;;;;;;;23.48;6.80;;;22.90;65.00;;;;;;7808533;28;20178;-58
2022/01/16 11:44:20;;;;;;;22.77;6.63;;;23.00;65.10;;;;;;7808899;28;20213;-58
2022/01/16 11:48:05;;;;;;;13.65;6.78;;;23.00;65.00;;;;;;7808422;28;20202;-58
2022/01/16 11:51:52;;;;;;;22.10;6.75;;;23.00;64.90;;;;;;7808594;28;20217;-59
2022/01/16 11:55:38;;;;;;;14.57;6.68;;;23.00;64.80;;;;;;7808949;28;20277;-58
2022/01/16 11:59:39;;;;;;;13.38;6.55;;;23.00;64.80;;;;;;7808368;28;20202;-59
2022/01/16 12:03:35;;;;;;;14.35;6.10;;;23.00;64.90;;;;;;7808648;28;20183;-58
2022/01/16 12:07:21;;;;;;;13.30;6.00;;;23.00;65.00;;;;;;7808315;28;20289;-59
2022/01/16 12:11:06;;;;;;;12.55;5.88;;;23.00;65.10;;;;;;7806965;28;20182;-58
2022/01/16 12:15:07;;;;;;;15.57;6.60;;;22.90;65.00;;;;;;7807836;28;20179;-59
2022/01/16 12:18:52;;;;;;;11.27;5.50;;;22.90;65.10;;;;;;7807160;28;20202;-60
2022/01/16 12:22:55;;;;;;;12.85;5.55;;;22.90;65.10;;;;;;7807544;28;20192;-58
2022/01/16 12:26:40;;;;;;;14.70;6.07;;;22.80;65.10;;;;;;7807627;28;20211;-59
2022/01/16 12:30:45;;;;;;;12.25;6.18;;;22.80;65.10;;;;;;7806780;28;20179;-59
2022/01/16 12:34:43;;;;;;;7.90;5.18;;;22.70;65.20;;;;;;7807329;28;20179;-58
2022/01/16 12:38:31;;;;;;;13.00;5.85;;;22.70;65.20;;;;;;7806440;28;20194;-59
2022/01/16 12:42:18;;;;;;;9.70;5.28;;;22.70;65.20;;;;;;7807156;28;20538;-57
2022/01/16 12:46:04;;;;;;;7.60;5.55;;;22.70;65.30;;;;;;7805883;28;20219;-58
2022/01/16 12:49:51;;;;;;;14.68;5.53;;;22.60;65.40;;;;;;7806134;28;20271;-58
2022/01/16 12:53:43;;;;;;;13.43;5.63;;;22.50;65.40;;;;;;7807221;28;20179;-58
2022/01/16 12:57:29;;;;;;;9.20;5.03;;;22.50;65.40;;;;;;7806264;28;20206;-59
2022/01/16 13:01:15;;;;;;;10.93;5.28;;;22.50;65.50;;;;;;7806442;28;20218;-60
2022/01/16 13:05:00;;;;;;;9.60;4.75;;;22.40;65.50;;;;;;7808471;28;20207;-58
2022/01/16 13:09:10;;;;;;;13.10;5.97;;;22.40;65.10;;;;;;7825047;28;20244;-57
2022/01/16 13:12:56;;;;;;;9.65;4.80;;;22.40;65.70;;;;;;7818417;28;20186;-59
2022/01/16 13:16:46;;;;;;;12.98;5.30;;;22.40;65.70;;;;;;7815957;28;20217;-58
2022/01/16 13:20:31;;;;;;;9.63;5.10;;;22.50;65.90;;;;;;7819756;28;20652;-59
2022/01/16 13:24:27;;;;;;;11.40;5.00;;;22.50;66.00;;;;;;7825837;28;20692;-59
2022/01/16 13:28:27;;;;;;;11.40;4.45;;;22.60;66.10;;;;;;7837913;28;20208;-57
2022/01/16 13:32:16;;;;;;;12.15;4.85;;;22.70;66.20;;;;;;7843217;28;20254;-57
2022/01/16 13:36:02;;;;;;;21.08;4.55;;;22.80;66.00;;;;;;7843534;28;20280;-58
2022/01/16 13:39:50;;;;;;;11.90;4.65;;;22.80;65.70;;;;;;7842419;28;20263;-59
2022/01/16 13:43:35;;;;;;;10.98;4.18;;;22.90;65.40;;;;;;7842983;28;20643;-58
2022/01/16 13:47:22;;;;;;;9.88;4.47;;;23.00;65.30;;;;;;7842845;28;20577;-57
2022/01/16 13:51:08;;;;;;;9.10;4.70;;;23.10;65.10;;;;;;7842258;28;20251;-57
2022/01/16 13:55:07;;;;;;;9.95;3.60;;;23.20;65.00;;;;;;7842355;28;20208;-59
2022/01/16 13:58:56;;;;;;;11.68;4.53;;;23.20;64.80;;;;;;7841939;28;20185;-58
2022/01/16 14:02:42;;;;;;;8.70;4.25;;;23.30;64.70;;;;;;7842639;28;20196;-59
2022/01/16 14:06:33;;;;;;;6.95;3.88;;;23.40;64.50;;;;;;7842527;28;20218;-59
2022/01/16 14:10:36;;;;;;;12.77;4.22;;;23.50;64.50;;;;;;7841763;28;20178;-59
2022/01/16 14:14:24;;;;;;;7.30;3.95;;;23.50;65.20;;;;;;7842305;28;20173;-59
2022/01/16 14:18:28;;;;;;;8.15;3.58;;;23.60;65.10;;;;;;7841431;28;20201;-59
2022/01/16 14:22:18;;;;;;;7.15;3.58;;;23.60;64.20;;;;;;7842111;28;20166;-59
2022/01/16 14:26:04;;;;;;;9.65;3.70;;;23.70;64.00;;;;;;7842042;28;20626;-57
2022/01/16 14:29:52;;;;;;;7.07;3.88;;;23.80;63.80;;;;;;7841352;28;20198;-56
2022/01/16 14:33:37;;;;;;;6.05;3.72;;;23.80;63.50;;;;;;7841295;28;20170;-57
2022/01/16 14:37:24;;;;;;;9.05;4.75;;;23.90;63.00;;;;;;7841620;28;20248;-57
2022/01/16 14:41:12;;;;;;;4.78;3.38;;;23.90;62.30;;;;;;7840747;28;20209;-58
2022/01/16 14:44:58;;;;;;;5.05;3.65;;;23.90;62.50;;;;;;7841364;28;20288;-56
2022/01/16 14:48:43;;;;;;;5.82;3.67;;;24.00;61.50;;;;;;7840518;28;20671;-57
2022/01/16 14:52:29;;;;;;;9.73;3.80;;;24.00;60.20;;;;;;7841224;28;20232;-57
2022/01/16 14:56:16;;;;;;;4.53;3.55;;;24.00;60.00;;;;;;7841068;28;20307;-56
2022/01/16 15:00:03;;;;;;;5.13;3.70;;;24.00;59.90;;;;;;7840215;28;20690;-57
2022/01/16 15:03:48;;;;;;;3.63;3.10;;;23.90;59.60;;;;;;7840774;28;20263;-58
2022/01/16 15:07:34;;;;;;;6.32;3.63;;;23.90;59.60;;;;;;7839879;28;20193;-59
2022/01/16 15:11:19;;;;;;;13.10;3.65;;;24.00;59.50;;;;;;7840446;28;20526;-57
2022/01/16 15:15:07;;;;;;;18.65;4.50;;;24.00;59.80;;;;;;7840472;28;20182;-57
2022/01/16 15:18:57;;;;;;;14.48;4.05;;;24.00;59.80;;;;;;7839632;28;20198;-59
2022/01/16 15:22:43;;;;;;;14.02;3.97;;;24.00;59.50;;;;;;7829881;28;20214;-57
2022/01/16 15:26:30;;;;;;;13.10;4.72;;;24.00;59.60;;;;;;7822309;28;20204;-58
2022/01/16 15:30:17;;;;;;;15.27;3.85;;;24.00;59.30;;;;;;7822390;28;20179;-57
2022/01/16 15:34:02;;;;;;;11.15;4.40;;;24.00;59.20;;;;;;7819157;28;20577;-57
2022/01/16 15:37:49;;;;;;;14.70;4.20;;;24.00;59.20;;;;;;7808100;28;20202;-58
2022/01/16 15:41:34;;;;;;;14.55;3.50;;;24.00;59.20;;;;;;7808687;28;20178;-59
2022/01/16 15:45:19;;;;;;;13.63;3.67;;;24.00;60.00;;;;;;7807599;28;20229;-57
2022/01/16 15:49:07;;;;;;;12.20;4.05;;;24.00;59.80;;;;;;7807776;28;20195;-57
2022/01/16 15:52:52;;;;;;;17.90;4.22;;;24.00;59.50;;;;;;7808767;28;20179;-59
2022/01/16 15:56:38;;;;;;;11.73;3.92;;;24.00;59.40;;;;;;7828422;28;20198;-57
2022/01/16 16:00:25;;;;;;;11.50;4.22;;;24.10;59.60;;;;;;7849079;28;20270;-58
2022/01/16 16:04:11;;;;;;;11.15;3.83;;;24.10;59.40;;;;;;7848250;28;20591;-59
2022/01/16 16:07:57;;;;;;;8.18;3.92;;;24.10;59.30;;;;;;7869117;28;20342;-56
2022/01/16 16:11:42;;;;;;;19.40;3.90;;;24.10;59.30;;;;;;7863356;28;20185;-57
2022/01/16 16:15:28;;;;;;;14.35;3.60;;;24.10;59.30;;;;;;7828213;28;20190;-57
2022/01/16 16:19:14;;;;;;;11.52;4.43;;;24.20;59.30;;;;;;7824870;28;20213;-59
2022/01/16 16:23:00;;;;;;;14.45;3.40;;;24.20;59.30;;;;;;7811279;28;20601;-59
2022/01/16 16:26:48;;;;;;;8.88;4.03;;;24.20;59.30;;;;;;7807661;28;20213;-59
2022/01/16 16:30:33;;;;;;;12.25;4.03;;;24.20;59.30;;;;;;7806919;28;20552;-57
2022/01/16 16:34:19;;;;;;;6.25;3.53;;;24.30;59.30;;;;;;7807716;28;20206;-57
2022/01/16 16:38:04;;;;;;;10.23;3.47;;;24.30;59.30;;;;;;7806599;28;20203;-58
2022/01/16 16:41:50;;;;;;;10.60;3.40;;;24.20;59.50;;;;;;7806646;28;20207;-54
2022/01/16 16:45:36;;;;;;;10.23;3.80;;;24.20;59.30;;;;;;7806824;28;20680;-57
2022/01/16 16:49:23;;;;;;;12.98;3.70;;;24.30;59.20;;;;;;7806280;28;20194;-57
2022/01/16 16:53:09;;;;;;;10.85;3.72;;;24.30;59.10;;;;;;7824158;28;20190;-57
2022/01/16 16:56:54;;;;;;;8.88;3.13;;;24.30;59.00;;;;;;7837513;28;20198;-57
2022/01/16 17:00:40;;;;;;;7.25;3.33;;;24.30;59.00;;;;;;7836545;28;20627;-57
2022/01/16 17:04:25;;;;;;;9.73;3.15;;;24.40;58.70;;;;;;7838008;28;20237;-57
2022/01/16 17:08:11;;;;;;;8.55;3.17;;;24.40;59.30;;;;;;7836902;28;20189;-58
2022/01/16 17:11:56;;;;;;;10.20;4.45;;;24.40;58.90;;;;;;7837485;28;20655;-56
2022/01/16 17:15:42;;;;;;;10.55;4.03;;;24.40;58.90;;;;;;7837584;28;20177;-58
2022/01/16 17:19:45;;;;;;;9.10;4.70;;;24.40;58.80;;;;;;7836462;28;20263;-57
2022/01/16 17:23:30;;;;;;;11.23;3.97;;;24.30;58.70;;;;;;7837325;28;20194;-58
2022/01/16 17:27:17;;;;;;;11.18;4.28;;;24.40;58.80;;;;;;7822766;28;20630;-57
2022/01/16 17:31:03;;;;;;;13.75;5.18;;;24.30;58.90;;;;;;7805503;28;20174;-57
2022/01/16 17:34:49;;;;;;;9.73;4.35;;;24.30;58.80;;;;;;7806537;28;20178;-57
2022/01/16 17:38:35;;;;;;;19.33;4.40;;;24.20;58.80;;;;;;7805567;28;20253;-57
2022/01/16 17:42:21;;;;;;;20.42;5.28;;;24.20;59.50;;;;;;7805770;28;20240;-57
2022/01/16 17:46:06;;;;;;;22.70;4.60;;;24.10;59.40;;;;;;7805804;28;20211;-56
2022/01/16 17:49:54;;;;;;;16.92;5.03;;;24.10;59.50;;;;;;7805466;28;20687;-56
2022/01/16 17:53:42;;;;;;;17.52;4.95;;;23.90;59.10;;;;;;7806019;28;20170;-55
2022/01/16 17:57:28;;;;;;;18.73;5.03;;;23.90;59.40;;;;;;7805672;28;20202;-58
2022/01/16 18:01:13;;;;;;;16.75;4.60;;;23.90;59.50;;;;;;7805579;28;20257;-60
2022/01/16 18:04:59;;;;;;;13.73;4.50;;;23.90;59.90;;;;;;7805902;28;20211;-59
2022/01/16 18:08:44;;;;;;;17.20;4.55;;;23.90;59.80;;;;;;7814031;28;20242;-57
2022/01/16 18:12:30;;;;;;;13.18;3.90;;;24.00;59.90;;;;;;7842353;28;20178;-59
2022/01/16 18:16:15;;;;;;;11.57;4.45;;;24.00;59.90;;;;;;7842244;28;20178;-60
2022/01/16 18:20:01;;;;;;;10.73;3.88;;;24.10;60.10;;;;;;7841178;28;20284;-59
2022/01/16 18:23:47;;;;;;;17.48;4.30;;;24.20;60.40;;;;;;7842246;28;20200;-59
2022/01/16 18:27:32;;;;;;;16.90;3.88;;;24.30;60.50;;;;;;7840976;28;20271;-59
2022/01/16 18:31:18;;;;;;;13.98;3.90;;;24.50;60.50;;;;;;7841733;28;20253;-59
2022/01/16 18:35:07;;;;;;;16.65;3.78;;;24.60;60.80;;;;;;7841581;28;20177;-58
2022/01/16 18:38:52;;;;;;;11.80;3.25;;;24.70;61.20;;;;;;7840865;28;20205;-57
2022/01/16 18:42:38;;;;;;;13.60;3.22;;;24.80;62.00;;;;;;7840808;28;20217;-56
2022/01/16 18:46:24;;;;;;;10.10;3.60;;;24.90;61.70;;;;;;7841019;28;20312;-56
2022/01/16 18:50:11;;;;;;;12.93;3.45;;;24.90;61.20;;;;;;7840401;28;20603;-57
2022/01/16 18:53:57;;;;;;;7.25;3.58;;;24.90;62.10;;;;;;7841146;28;20195;-58
2022/01/16 18:57:43;;;;;;;9.55;2.95;;;25.00;62.70;;;;;;7840150;28;20210;-58
2022/01/16 19:01:28;;;;;;;7.88;3.17;;;25.00;62.80;;;;;;7840582;28;20173;-59
2022/01/16 19:05:14;;;;;;;9.70;3.05;;;25.10;63.00;;;;;;7840381;28;20206;-58
2022/01/16 19:08:59;;;;;;;12.00;2.50;;;25.10;63.40;;;;;;7839908;28;20190;-57
2022/01/16 19:12:45;;;;;;;9.95;3.05;;;25.10;63.10;;;;;;7840366;28;20174;-57
2022/01/16 19:16:31;;;;;;;37.10;3.80;;;25.10;63.70;;;;;;7840311;28;20174;-57
2022/01/16 19:20:17;;;;;;;19.60;7.88;;;25.10;65.50;;;;;;7839232;28;20186;-57
2022/01/16 19:24:02;;;;;;;18.70;6.40;;;25.00;60.00;;;;;;7840199;28;20182;-57
2022/01/16 19:27:48;;;;;;;13.73;4.10;;;24.50;59.30;;;;;;7839628;28;20197;-56
2022/01/16 19:31:34;;;;;;;19.48;4.10;;;24.30;63.00;;;;;;7840122;28;20569;-57
2022/01/16 19:35:19;;;;;;;20.08;3.90;;;24.30;63.90;;;;;;7839598;28;20186;-58
2022/01/16 19:39:05;;;;;;;22.95;4.00;;;24.40;65.00;;;;;;7829442;28;20214;-58
2022/01/16 19:46:51;;;;;;;14.75;3.80;;;24.50;66.40;;;;;;7807792;28;20241;-58
2022/01/16 19:50:36;;;;;;;18.05;3.55;;;24.60;66.40;;;;;;7824294;28;20292;-56
2022/01/16 19:54:22;;;;;;;15.48;3.63;;;24.60;67.40;;;;;;7838211;28;20185;-57
2022/01/16 19:58:08;;;;;;;13.32;3.40;;;24.60;66.60;;;;;;7837522;28;20202;-59
2022/01/16 20:01:53;;;;;;;16.65;3.45;;;24.60;66.70;;;;;;7837986;28;20182;-59
2022/01/16 20:05:39;;;;;;;11.15;3.20;;;24.60;67.00;;;;;;7837778;28;20214;-59
2022/01/16 20:09:24;;;;;;;12.93;3.30;;;24.60;66.80;;;;;;7826902;28;20209;-58
2022/01/16 20:13:10;;;;;;;17.58;3.35;;;24.50;66.50;;;;;;7809202;28;20547;-57
2022/01/16 20:16:56;;;;;;;8.00;3.95;;;24.50;66.70;;;;;;7808298;28;20210;-59
2022/01/16 20:20:42;;;;;;;19.70;3.97;;;24.20;62.10;;;;;;7805933;28;20198;-58